createdAt,value
2018-06-22T00:01:46.937Z,1.40
2018-06-22T00:04:14.980Z,3.98
2018-06-22T00:06:43.041Z,1.50
2018-06-22T00:09:11.608Z,2.67
2018-06-22T00:11:39.796Z,3.33
2018-06-22T00:14:08.367Z,4.33
2018-06-22T00:16:36.516Z,5.03
2018-06-22T00:19:04.620Z,1.50
2018-06-22T00:21:32.658Z,6.60
2018-06-22T00:24:00.707Z,3.15
2018-06-22T00:26:28.795Z,4.05
2018-06-22T00:28:56.841Z,7.17
2018-06-22T00:31:23.956Z,9.78
2018-06-22T00:33:52.011Z,1.60
2018-06-22T00:36:20.048Z,1.40
2018-06-22T00:38:48.092Z,1.90
2018-06-22T00:41:16.134Z,1.40
2018-06-22T00:43:44.187Z,1.40
2018-06-22T00:46:12.229Z,1.70
2018-06-22T00:48:40.273Z,1.60
2018-06-22T00:51:08.319Z,1.35
2018-06-22T00:53:47.728Z,1.60
2018-06-22T00:56:15.763Z,2.05
2018-06-22T00:58:43.796Z,1.95
2018-06-22T01:01:11.839Z,2.15
2018-06-22T01:03:39.906Z,2.65
2018-06-22T01:06:07.953Z,1.70
2018-06-22T01:08:36.044Z,4.47
2018-06-22T01:11:04.124Z,18.37
2018-06-22T01:13:32.200Z,1.60
2018-06-22T01:16:00.244Z,3.40
2018-06-22T01:18:28.289Z,2.00
2018-06-22T01:20:56.323Z,1.85
2018-06-22T01:23:24.355Z,2.35
2018-06-22T01:25:52.456Z,1.52
2018-06-22T01:28:20.508Z,3.12
2018-06-22T01:30:48.563Z,2.20
2018-06-22T01:33:16.596Z,2.10
2018-06-22T01:35:44.635Z,10.55
2018-06-22T01:38:12.664Z,3.05
2018-06-22T01:40:40.703Z,5.00
2018-06-22T01:43:08.758Z,1.40
2018-06-22T01:45:36.796Z,1.50
2018-06-22T01:48:04.865Z,1.60
2018-06-22T01:50:32.899Z,3.25
2018-06-22T01:53:00.924Z,3.10
2018-06-22T01:55:28.960Z,1.80
2018-06-22T01:57:57.019Z,2.50
2018-06-22T02:00:25.065Z,1.50
2018-06-22T02:02:53.088Z,1.92
2018-06-22T02:05:21.139Z,1.70
2018-06-22T02:07:49.177Z,1.87
2018-06-22T02:10:17.192Z,5.72
2018-06-22T02:12:45.270Z,1.40
2018-06-22T02:15:13.312Z,2.95
2018-06-22T02:17:41.356Z,2.50
2018-06-22T02:20:09.410Z,6.47
2018-06-22T02:22:37.452Z,2.40
2018-06-22T02:25:05.500Z,1.50
2018-06-22T02:27:33.563Z,1.50
2018-06-22T02:30:01.603Z,2.40
2018-06-22T02:32:29.629Z,5.25
2018-06-22T02:34:57.656Z,3.12
2018-06-22T02:37:25.784Z,12.43
2018-06-22T02:39:53.830Z,4.25
2018-06-22T02:42:21.868Z,1.35
2018-06-22T02:44:49.895Z,1.35
2018-06-22T02:47:17.933Z,2.42
2018-06-22T02:49:45.966Z,1.57
2018-06-22T02:52:14.000Z,1.50
2018-06-22T02:54:42.020Z,1.40
2018-06-22T02:57:10.059Z,1.87
2018-06-22T02:59:38.099Z,1.40
2018-06-22T03:02:06.165Z,1.60
2018-06-22T03:04:34.192Z,1.65
2018-06-22T03:07:02.225Z,3.27
2018-06-22T03:09:30.276Z,1.60
2018-06-22T03:11:58.322Z,1.40
2018-06-22T03:14:26.353Z,1.40
2018-06-22T03:16:54.481Z,1.40
2018-06-22T03:19:22.522Z,2.77
2018-06-22T03:21:50.552Z,1.50
2018-06-22T03:24:18.581Z,2.33
2018-06-22T03:26:46.604Z,1.92
2018-06-22T03:29:14.649Z,4.35
2018-06-22T03:31:42.676Z,1.50
2018-06-22T03:34:10.741Z,1.37
2018-06-22T03:36:38.772Z,1.77
2018-06-22T03:39:08.237Z,4.90
2018-06-22T03:41:36.265Z,1.65
2018-06-22T03:44:04.299Z,1.30
2018-06-22T03:46:32.324Z,3.35
2018-06-22T03:49:00.397Z,1.50
2018-06-22T03:51:28.490Z,9.35
2018-06-22T03:53:56.520Z,1.40
2018-06-22T03:56:24.588Z,14.45
2018-06-22T03:58:52.620Z,1.75
2018-06-22T04:01:20.648Z,1.50
2018-06-22T04:03:48.712Z,3.25
2018-06-22T04:06:16.732Z,6.58
2018-06-22T04:08:44.775Z,1.50
2018-06-22T04:11:12.808Z,1.40
2018-06-22T04:13:40.839Z,3.67
2018-06-22T04:16:08.860Z,1.50
2018-06-22T04:18:36.944Z,2.45
2018-06-22T04:21:04.976Z,1.80
2018-06-22T04:23:32.992Z,1.50
2018-06-22T04:26:01.039Z,2.05
2018-06-22T04:28:29.098Z,1.40
2018-06-22T04:30:57.159Z,1.40
2018-06-22T04:33:25.204Z,3.35
2018-06-22T04:35:53.268Z,2.58
2018-06-22T04:38:21.294Z,1.80
2018-06-22T04:40:49.340Z,1.60
2018-06-22T04:43:17.356Z,1.52
2018-06-22T04:45:45.389Z,1.60
2018-06-22T04:48:13.415Z,2.62
2018-06-22T04:50:41.467Z,2.08
2018-06-22T04:53:09.521Z,1.75
2018-06-22T04:55:37.553Z,1.98
2018-06-22T04:58:05.580Z,5.97
2018-06-22T05:00:33.617Z,1.40
2018-06-22T05:03:01.642Z,2.47
2018-06-22T05:05:29.690Z,1.37
2018-06-22T05:07:57.784Z,1.60
2018-06-22T05:10:25.837Z,2.58
2018-06-22T05:12:53.864Z,1.40
2018-06-22T05:15:21.896Z,2.20
2018-06-22T05:17:49.936Z,1.90
2018-06-22T05:20:17.951Z,4.50
2018-06-22T05:22:46.023Z,1.92
2018-06-22T05:25:14.070Z,2.30
2018-06-22T05:27:42.100Z,4.25
2018-06-22T05:30:10.150Z,3.60
2018-06-22T05:32:38.183Z,3.25
2018-06-22T05:35:06.224Z,1.72
2018-06-22T05:37:34.264Z,9.88
2018-06-22T05:40:02.288Z,1.60
2018-06-22T05:42:30.341Z,3.75
2018-06-22T05:44:58.376Z,2.37
2018-06-22T05:47:28.329Z,1.60
2018-06-22T05:49:56.376Z,1.37
2018-06-22T05:52:24.439Z,3.27
2018-06-22T05:54:52.478Z,2.30
2018-06-22T05:57:20.536Z,1.60
2018-06-22T05:59:48.572Z,4.25
2018-06-22T06:02:16.625Z,1.90
2018-06-22T06:04:44.656Z,1.77
2018-06-22T06:07:12.707Z,1.75
2018-06-22T06:09:40.736Z,6.47
2018-06-22T06:12:08.805Z,2.72
2018-06-22T06:14:36.860Z,16.50
2018-06-22T06:17:04.967Z,1.80
2018-06-22T06:19:33.000Z,6.87
2018-06-22T06:22:01.039Z,4.50
2018-06-22T06:24:29.072Z,3.72
2018-06-22T06:26:57.120Z,3.00
2018-06-22T06:29:25.180Z,2.87
2018-06-22T06:31:53.236Z,2.42
2018-06-22T06:34:21.296Z,1.82
2018-06-22T06:36:49.317Z,2.30
2018-06-22T06:39:17.364Z,7.87
2018-06-22T06:41:45.516Z,1.70
2018-06-22T06:44:13.561Z,1.65
2018-06-22T06:46:41.619Z,3.80
2018-06-22T06:49:09.648Z,4.00
2018-06-22T06:51:37.700Z,6.95
2018-06-22T06:54:05.753Z,22.85
2018-06-22T06:56:33.804Z,2.40
2018-06-22T06:59:02.195Z,1.62
2018-06-22T07:01:30.479Z,1.82
2018-06-22T07:03:58.573Z,4.80
2018-06-22T07:06:26.620Z,3.33
2018-06-22T07:08:54.720Z,2.15
2018-06-22T07:11:22.767Z,3.65
2018-06-22T07:13:50.849Z,6.58
2018-06-22T07:16:18.883Z,2.58
2018-06-22T07:18:47.158Z,6.12
2018-06-22T07:21:15.204Z,4.83
2018-06-22T07:23:43.274Z,4.12
2018-06-22T07:26:11.359Z,2.95
2018-06-22T07:28:39.416Z,3.27
2018-06-22T07:31:07.719Z,17.82
2018-06-22T07:33:35.777Z,3.67
2018-06-22T07:36:03.902Z,4.45
2018-06-22T07:38:31.912Z,4.45
2018-06-22T07:41:00.000Z,2.45
2018-06-22T07:43:28.061Z,2.60
2018-06-22T07:45:56.112Z,2.40
2018-06-22T07:48:24.169Z,2.22
2018-06-22T07:50:52.241Z,7.45
2018-06-22T07:53:20.312Z,5.10
2018-06-22T07:55:48.356Z,5.87
2018-06-22T07:58:16.417Z,4.30
2018-06-22T08:00:44.466Z,9.93
2018-06-22T08:03:12.524Z,3.75
2018-06-22T08:05:40.592Z,4.00
2018-06-22T08:08:08.682Z,2.77
2018-06-22T08:10:36.841Z,4.00
2018-06-22T08:13:04.909Z,5.37
2018-06-22T08:15:33.009Z,11.00
2018-06-22T08:18:01.182Z,9.18
2018-06-22T08:20:29.230Z,5.10
2018-06-22T08:22:57.348Z,5.72
2018-06-22T08:25:25.478Z,4.22
2018-06-22T08:27:53.556Z,7.10
2018-06-22T08:30:21.621Z,6.97
2018-06-22T08:32:49.672Z,4.87
2018-06-22T08:35:17.741Z,8.08
2018-06-22T08:37:45.812Z,7.10
2018-06-22T08:40:13.873Z,8.08
2018-06-22T08:42:41.921Z,7.15
2018-06-22T08:45:09.978Z,6.58
2018-06-22T08:47:38.035Z,9.38
2018-06-22T08:50:06.129Z,13.58
2018-06-22T08:52:34.220Z,10.75
2018-06-22T08:55:02.292Z,9.60
2018-06-22T08:57:30.357Z,5.95
2018-06-22T08:59:58.420Z,9.23
2018-06-22T09:02:26.475Z,7.65
2018-06-22T09:04:54.540Z,7.60
2018-06-22T09:07:22.637Z,8.50
2018-06-22T09:09:50.715Z,12.03
2018-06-22T09:12:18.780Z,11.43
2018-06-22T09:14:46.877Z,8.83
2018-06-22T09:17:14.936Z,7.10
2018-06-22T09:19:43.086Z,10.95
2018-06-22T09:22:11.113Z,10.75
2018-06-22T09:24:39.185Z,12.10
2018-06-22T09:27:07.251Z,9.93
2018-06-22T09:29:35.344Z,8.90
2018-06-22T09:32:03.449Z,13.13
2018-06-22T09:34:31.524Z,7.87
2018-06-22T09:36:59.581Z,8.85
2018-06-22T09:39:27.656Z,22.37
2018-06-22T09:41:55.706Z,13.65
2018-06-22T09:44:36.949Z,21.77
2018-06-22T09:47:05.189Z,23.83
2018-06-22T09:49:33.281Z,15.72
2018-06-22T09:52:01.357Z,25.60
2018-06-22T09:54:29.421Z,16.90
2018-06-22T09:56:57.498Z,14.00
2018-06-22T09:59:25.603Z,16.48
2018-06-22T10:01:54.536Z,18.57
2018-06-22T10:04:23.431Z,16.67
2018-06-22T10:06:52.028Z,18.77
2018-06-22T10:09:20.086Z,10.45
2018-06-22T10:11:48.203Z,17.12
2018-06-22T10:14:16.268Z,14.40
2018-06-22T10:16:44.341Z,14.45
2018-06-22T10:19:12.391Z,10.72
2018-06-22T10:21:40.467Z,10.82
2018-06-22T10:24:08.528Z,12.82
2018-06-22T10:26:36.592Z,15.88
2018-06-22T10:29:04.671Z,14.93
2018-06-22T10:31:32.776Z,13.18
2018-06-22T10:34:00.863Z,22.13
2018-06-22T10:36:28.957Z,16.87
2018-06-22T10:38:57.020Z,14.00
2018-06-22T10:41:25.109Z,10.72
2018-06-22T10:43:53.176Z,13.72
2018-06-22T10:46:21.252Z,27.13
2018-06-22T10:48:49.315Z,23.40
2018-06-22T10:51:17.404Z,19.45
2018-06-22T10:53:45.465Z,27.93
2018-06-22T10:56:13.538Z,19.80
2018-06-22T10:58:41.621Z,16.32
2018-06-22T11:01:09.708Z,13.43
2018-06-22T11:03:37.856Z,14.18
2018-06-22T11:06:05.921Z,13.00
2018-06-22T11:08:33.969Z,13.48
2018-06-22T11:11:02.032Z,11.97
2018-06-22T11:13:30.106Z,16.70
2018-06-22T11:15:58.153Z,17.30
2018-06-22T11:18:26.317Z,17.50
2018-06-22T11:20:54.293Z,12.03
2018-06-22T11:23:22.361Z,11.25
2018-06-22T11:25:50.433Z,13.22
2018-06-22T11:28:18.513Z,29.80
2018-06-22T11:30:46.624Z,18.60
2018-06-22T11:33:14.631Z,24.23
2018-06-22T11:35:42.785Z,17.80
2018-06-22T11:38:10.793Z,28.30
2018-06-22T11:40:38.844Z,24.05
2018-06-22T11:43:06.904Z,9.68
2018-06-22T11:45:34.960Z,16.50
2018-06-22T11:48:03.016Z,15.43
2018-06-22T11:50:31.182Z,22.05
2018-06-22T11:52:59.235Z,18.02
2018-06-22T11:55:27.284Z,17.50
2018-06-22T11:57:55.354Z,16.50
2018-06-22T12:00:23.399Z,15.32
2018-06-22T12:02:51.491Z,13.90
2018-06-22T12:05:19.578Z,32.95
2018-06-22T12:07:47.663Z,24.20
2018-06-22T12:10:15.711Z,30.32
2018-06-22T12:12:43.756Z,21.05
2018-06-22T12:15:11.829Z,23.67
2018-06-22T12:17:39.900Z,22.07
2018-06-22T12:20:07.944Z,22.07
2018-06-22T12:22:36.004Z,18.77
2018-06-22T12:25:04.085Z,18.95
2018-06-22T12:27:32.252Z,14.95
2018-06-22T12:30:00.317Z,13.08
2018-06-22T12:32:28.660Z,13.32
2018-06-22T12:34:56.719Z,14.35
2018-06-22T12:37:24.792Z,37.58
2018-06-22T12:39:52.921Z,15.28
2018-06-22T12:42:20.965Z,13.95
2018-06-22T12:44:49.036Z,10.68
2018-06-22T12:47:17.086Z,9.93
2018-06-22T12:49:45.220Z,11.45
2018-06-22T12:52:13.314Z,13.03
2018-06-22T12:54:41.380Z,14.55
2018-06-22T12:57:09.448Z,12.13
2018-06-22T12:59:37.535Z,9.80
2018-06-22T13:02:05.788Z,14.95
2018-06-22T13:04:33.884Z,15.90
2018-06-22T13:07:01.940Z,15.98
2018-06-22T13:09:30.083Z,11.10
2018-06-22T13:11:58.076Z,11.63
2018-06-22T13:14:26.131Z,8.55
2018-06-22T13:16:54.240Z,9.60
2018-06-22T13:19:22.304Z,18.20
2018-06-22T13:21:52.565Z,10.55
2018-06-22T13:24:22.014Z,40.88
2018-06-22T13:26:50.087Z,8.95
2018-06-22T13:29:18.159Z,11.08
2018-06-22T13:31:46.265Z,11.68
2018-06-22T13:34:15.421Z,18.95
2018-06-22T13:36:43.791Z,17.57
2018-06-22T13:39:14.257Z,10.65
2018-06-22T13:41:42.706Z,21.68
2018-06-22T13:44:11.080Z,13.25
2018-06-22T13:46:39.867Z,9.25
2018-06-22T13:49:08.755Z,7.87
2018-06-22T13:51:37.338Z,9.75
2018-06-22T13:54:05.402Z,15.80
2018-06-22T13:56:34.295Z,14.05
2018-06-22T13:59:02.672Z,9.00
2018-06-22T14:01:31.575Z,10.15
2018-06-22T14:04:04.944Z,10.63
2018-06-22T14:06:38.456Z,10.35
2018-06-22T14:09:09.938Z,14.40
2018-06-22T14:11:37.969Z,10.82
2018-06-22T14:14:06.027Z,20.50
2018-06-22T14:16:34.168Z,8.78
2018-06-22T14:19:02.328Z,14.58
2018-06-22T14:21:30.384Z,13.72
2018-06-22T14:23:58.640Z,12.98
2018-06-22T14:26:26.677Z,14.93
2018-06-22T14:28:54.740Z,14.05
2018-06-22T14:31:22.783Z,9.90
2018-06-22T14:33:50.833Z,14.23
2018-06-22T14:36:18.892Z,10.85
2018-06-22T14:38:46.964Z,10.80
2018-06-22T14:41:15.028Z,13.10
2018-06-22T14:43:43.083Z,10.45
2018-06-22T14:46:11.157Z,15.80
2018-06-22T14:48:39.202Z,12.73
2018-06-22T14:51:07.292Z,10.93
2018-06-22T14:53:40.740Z,15.05
2018-06-22T14:56:14.086Z,11.73
2018-06-22T14:58:47.477Z,15.40
2018-06-22T15:01:20.912Z,6.75
2018-06-22T15:03:54.460Z,16.87
2018-06-22T15:06:27.947Z,13.35
2018-06-22T15:08:56.017Z,8.20
2018-06-22T15:11:24.093Z,15.45
2018-06-22T15:13:52.151Z,7.92
2018-06-22T15:16:20.219Z,10.08
2018-06-22T15:18:48.627Z,11.88
2018-06-22T15:21:16.715Z,12.82
2018-06-22T15:23:44.780Z,9.03
2018-06-22T15:26:12.840Z,8.03
2018-06-22T15:28:40.896Z,12.10
2018-06-22T15:31:08.956Z,8.15
2018-06-22T15:33:42.461Z,10.82
2018-06-22T15:36:16.054Z,9.75
2018-06-22T15:38:49.550Z,9.25
2018-06-22T15:41:23.066Z,9.25
2018-06-22T15:43:56.576Z,7.12
2018-06-22T15:46:29.997Z,9.65
2018-06-22T15:49:03.533Z,6.50
2018-06-22T15:51:37.062Z,11.45
2018-06-22T15:54:10.594Z,5.50
2018-06-22T15:56:38.619Z,7.67
2018-06-22T15:59:06.779Z,6.17
2018-06-22T16:01:34.838Z,8.30
2018-06-22T16:04:07.064Z,7.15
2018-06-22T16:06:35.119Z,7.15
2018-06-22T16:09:03.881Z,5.85
2018-06-22T16:11:31.947Z,8.53
2018-06-22T16:14:05.285Z,9.88
2018-06-22T16:16:38.693Z,6.30
2018-06-22T16:19:12.242Z,4.75
2018-06-22T16:21:45.561Z,8.75
2018-06-22T16:24:19.064Z,11.97
2018-06-22T16:26:52.458Z,9.18
2018-06-22T16:29:20.500Z,8.45
2018-06-22T16:31:48.548Z,12.00
2018-06-22T16:34:16.600Z,6.03
2018-06-22T16:36:44.664Z,10.38
2018-06-22T16:39:13.801Z,14.25
2018-06-22T16:41:41.849Z,6.47
2018-06-22T16:44:10.460Z,5.97
2018-06-22T16:46:38.500Z,7.75
2018-06-22T16:49:06.588Z,15.53
2018-06-22T16:51:36.719Z,6.53
2018-06-22T16:54:04.860Z,13.10
2018-06-22T16:56:32.923Z,1025.55
2018-06-22T16:59:02.501Z,925.10
2018-06-22T17:01:30.841Z,792.17
2018-06-22T17:03:58.900Z,648.42
2018-06-22T17:06:26.957Z,250.30
2018-06-22T17:09:00.470Z,164.65
2018-06-22T17:11:33.848Z,224.95
2018-06-22T17:15:05.964Z,258.07
2018-06-22T17:17:39.494Z,168.90
2018-06-22T17:20:07.573Z,262.72
2018-06-22T17:22:35.655Z,179.70
2018-06-22T17:25:03.724Z,156.70
2018-06-22T17:27:31.794Z,135.35
2018-06-22T17:29:59.893Z,100.85
2018-06-22T17:32:27.957Z,80.12
2018-06-22T17:34:56.033Z,62.10
2018-06-22T17:37:24.089Z,124.12
2018-06-22T17:39:52.156Z,91.22
2018-06-22T17:42:20.213Z,108.07
2018-06-22T17:44:48.288Z,83.30
2018-06-22T17:47:16.368Z,99.65
2018-06-22T17:49:44.436Z,116.65
2018-06-22T17:52:12.488Z,74.62
2018-06-22T17:54:40.571Z,60.25
2018-06-22T17:57:08.632Z,61.00
2018-06-22T17:59:42.017Z,59.35
2018-06-22T18:02:15.368Z,72.53
2018-06-22T18:04:45.580Z,58.23
2018-06-22T18:07:19.220Z,43.42
2018-06-22T18:09:52.782Z,54.50
2018-06-22T18:12:26.289Z,68.47
2018-06-22T18:14:54.452Z,54.48
2018-06-22T18:17:23.545Z,49.27
2018-06-22T18:19:55.415Z,44.93
2018-06-22T18:22:26.546Z,37.55
2018-06-22T18:24:58.596Z,39.50
2018-06-22T18:27:28.131Z,26.35
2018-06-22T18:30:00.853Z,10.82
2018-06-22T18:32:33.982Z,43.70
2018-06-22T18:35:08.921Z,32.05
2018-06-22T18:37:44.927Z,34.20
2018-06-22T18:40:13.578Z,32.63
2018-06-22T18:42:41.796Z,34.83
2018-06-22T18:45:11.145Z,27.05
2018-06-22T18:47:39.416Z,33.63
2018-06-22T18:50:10.461Z,22.17
2018-06-22T18:52:43.938Z,23.35
2018-06-22T18:55:18.303Z,25.48
2018-06-22T18:57:51.855Z,32.17
2018-06-22T19:00:25.239Z,21.97
2018-06-22T19:02:58.687Z,24.72
2018-06-22T19:05:26.692Z,23.83
2018-06-22T19:07:54.741Z,17.90
2018-06-22T19:10:22.814Z,16.70
2018-06-22T19:12:50.882Z,17.52
2018-06-22T19:15:19.203Z,20.30
2018-06-22T19:17:49.060Z,19.80
2018-06-22T19:20:18.508Z,18.42
2018-06-22T19:22:51.492Z,13.50
2018-06-22T19:25:24.379Z,12.10
2018-06-22T19:27:58.577Z,15.28
2018-06-22T19:35:51.707Z,14.30
2018-06-22T19:38:19.765Z,7.72
2018-06-22T19:40:57.213Z,9.85
2018-06-22T19:43:34.124Z,10.53
2018-06-22T19:46:09.076Z,15.63
2018-06-22T19:48:57.310Z,15.08
2018-06-22T19:51:32.338Z,21.77
2018-06-22T19:54:05.546Z,16.32
2018-06-22T19:56:54.891Z,17.02
2018-06-22T19:59:34.494Z,21.68
2018-06-22T20:02:12.319Z,27.45
2018-06-22T20:04:40.383Z,21.25
2018-06-22T20:07:08.468Z,23.02
2018-06-22T20:09:36.525Z,17.60
2018-06-22T20:12:04.732Z,16.12
2018-06-22T20:14:32.988Z,14.15
2018-06-22T20:17:01.054Z,24.20
2018-06-22T20:19:29.136Z,10.63
2018-06-22T20:21:58.226Z,12.70
2018-06-22T20:24:31.858Z,7.95
2018-06-22T20:26:59.973Z,5.00
2018-06-22T20:29:28.139Z,14.30
2018-06-22T20:31:56.340Z,3.33
2018-06-22T20:34:30.562Z,5.30
2018-06-22T20:38:01.613Z,4.40
2018-06-22T20:40:35.152Z,5.35
2018-06-22T20:43:08.705Z,7.97
2018-06-22T20:45:38.993Z,11.63
2018-06-22T20:48:12.565Z,7.60
2018-06-22T20:50:40.779Z,6.65
2018-06-22T20:53:08.845Z,1.90
2018-06-22T20:55:36.945Z,3.42
2018-06-22T20:58:05.076Z,12.63
2018-06-22T21:00:33.124Z,17.65
2018-06-22T21:03:01.194Z,6.15
2018-06-22T21:05:29.239Z,9.68
2018-06-22T21:07:57.309Z,6.15
2018-06-22T21:10:25.386Z,5.53
2018-06-22T21:12:53.529Z,5.30
2018-06-22T21:15:21.497Z,3.22
2018-06-22T21:17:49.656Z,17.02
2018-06-22T21:20:17.691Z,5.30
2018-06-22T21:22:45.799Z,4.72
2018-06-22T21:25:13.819Z,9.65
2018-06-22T21:27:47.328Z,18.60
2018-06-22T21:30:20.821Z,10.28
2018-06-22T21:32:54.369Z,7.75
2018-06-22T21:35:27.744Z,14.23
2018-06-22T21:38:01.203Z,10.35
2018-06-22T21:40:29.276Z,11.00
2018-06-22T21:42:57.351Z,13.48
2018-06-22T21:45:25.448Z,3.20
2018-06-22T21:47:53.491Z,2.40
2018-06-22T21:50:21.552Z,5.20
2018-06-22T21:52:49.623Z,3.15
2018-06-22T21:55:17.689Z,11.12
2018-06-22T21:57:45.748Z,4.28
2018-06-22T22:00:18.501Z,4.17
2018-06-22T22:02:46.510Z,18.05
2018-06-22T22:05:14.557Z,5.00
2018-06-22T22:07:42.629Z,10.48
2018-06-22T22:10:10.675Z,8.80
2018-06-22T22:12:38.733Z,9.68
2018-06-22T22:15:06.812Z,3.92
2018-06-22T22:17:34.865Z,2.98
2018-06-22T22:20:02.912Z,7.47
2018-06-22T22:22:30.965Z,15.00
2018-06-22T22:24:59.016Z,12.35
2018-06-22T22:27:27.073Z,3.42
2018-06-22T22:29:55.103Z,4.33
2018-06-22T22:32:23.172Z,5.70
2018-06-22T22:34:51.208Z,3.75
2018-06-22T22:37:19.251Z,12.98
2018-06-22T22:39:47.304Z,10.75
2018-06-22T22:42:15.350Z,5.60
2018-06-22T22:44:43.405Z,9.70
2018-06-22T22:47:11.445Z,17.57
2018-06-22T22:49:39.511Z,5.30
2018-06-22T22:52:07.625Z,18.67
2018-06-22T22:54:35.674Z,15.10
2018-06-22T22:57:03.719Z,10.80
2018-06-22T22:59:31.773Z,13.40
2018-06-22T23:01:59.815Z,7.05
2018-06-22T23:04:27.863Z,8.53
2018-06-22T23:06:55.916Z,34.40
2018-06-22T23:09:23.985Z,6.90
2018-06-22T23:11:52.037Z,10.90
2018-06-22T23:14:20.093Z,3.52
2018-06-22T23:16:48.136Z,26.17
2018-06-22T23:19:16.186Z,7.42
2018-06-22T23:21:44.236Z,3.33
2018-06-22T23:24:12.289Z,5.08
2018-06-22T23:26:40.329Z,3.83
2018-06-22T23:29:08.385Z,3.55
2018-06-22T23:31:36.426Z,10.28
2018-06-22T23:34:04.501Z,38.88
2018-06-22T23:36:32.541Z,19.07
2018-06-22T23:39:00.596Z,3.17
2018-06-22T23:41:28.644Z,7.08
2018-06-22T23:43:56.696Z,4.08
2018-06-22T23:46:24.730Z,9.88
2018-06-22T23:48:52.783Z,2.70
2018-06-22T23:51:20.844Z,7.17
2018-06-22T23:53:48.896Z,10.60
2018-06-22T23:56:16.947Z,4.62
2018-06-22T23:58:45.002Z,5.05
